sensor_id;sensor_type;location;lat;lon;timestamp;pressure;altitude;pressure_sealevel;temperature;humidity
60015;BME280;45867;52.480;6.056;2023-02-28T00:02:16;103216.34;;;1.84;100.00
60015;BME280;45867;52.480;6.056;2023-02-28T00:04:44;103212.66;;;1.76;100.00
60015;BME280;45867;52.480;6.056;2023-02-28T00:07:10;103213.47;;;1.77;100.00
60015;BME280;45867;52.480;6.056;2023-02-28T00:09:35;103187.72;;;1.64;100.00
60015;BME280;45867;52.480;6.056;2023-02-28T00:12:00;103200.19;;;1.70;100.00
60015;BME280;45867;52.480;6.056;2023-02-28T00:14:36;103203.78;;;1.69;100.00
60015;BME280;45867;52.480;6.056;2023-02-28T00:17:02;103210.34;;;1.73;100.00
60015;BME280;45867;52.480;6.056;2023-02-28T00:19:27;103208.25;;;1.77;100.00
60015;BME280;45867;52.480;6.056;2023-02-28T00:21:53;103200.72;;;1.74;100.00
60015;BME280;45867;52.480;6.056;2023-02-28T00:24:18;103201.84;;;1.71;100.00
60015;BME280;45867;52.480;6.056;2023-02-28T00:26:43;103212.38;;;1.80;100.00
60015;BME280;45867;52.480;6.056;2023-02-28T00:29:09;103221.72;;;1.82;100.00
60015;BME280;45867;52.480;6.056;2023-02-28T00:31:35;103207.31;;;1.78;100.00
60015;BME280;45867;52.480;6.056;2023-02-28T00:34:00;103211.13;;;1.84;100.00
60015;BME280;45867;52.480;6.056;2023-02-28T00:36:25;103215.34;;;1.85;100.00
60015;BME280;45867;52.480;6.056;2023-02-28T00:38:51;103215.22;;;1.86;100.00
60015;BME280;45867;52.480;6.056;2023-02-28T00:41:16;103206.84;;;1.83;100.00
60015;BME280;45867;52.480;6.056;2023-02-28T00:43:41;103204.22;;;1.83;100.00
60015;BME280;45867;52.480;6.056;2023-02-28T00:46:07;103215.06;;;1.88;100.00
60015;BME280;45867;52.480;6.056;2023-02-28T00:48:33;103214.03;;;1.81;100.00
60015;BME280;45867;52.480;6.056;2023-02-28T00:50:58;103224.88;;;1.86;100.00
60015;BME280;45867;52.480;6.056;2023-02-28T00:53:24;103217.28;;;1.83;100.00
60015;BME280;45867;52.480;6.056;2023-02-28T00:55:49;103202.69;;;1.72;100.00
60015;BME280;45867;52.480;6.056;2023-02-28T00:58:15;103202.00;;;1.70;100.00
60015;BME280;45867;52.480;6.056;2023-02-28T01:00:40;103196.59;;;1.71;100.00
60015;BME280;45867;52.480;6.056;2023-02-28T01:03:06;103212.16;;;1.73;100.00
60015;BME280;45867;52.480;6.056;2023-02-28T01:05:31;103217.91;;;1.76;100.00
60015;BME280;45867;52.480;6.056;2023-02-28T01:07:56;103208.56;;;1.74;100.00
60015;BME280;45867;52.480;6.056;2023-02-28T01:10:21;103212.28;;;1.71;100.00
60015;BME280;45867;52.480;6.056;2023-02-28T01:12:47;103213.47;;;1.77;100.00
60015;BME280;45867;52.480;6.056;2023-02-28T01:15:12;103208.72;;;1.72;100.00
60015;BME280;45867;52.480;6.056;2023-02-28T01:17:37;103212.97;;;1.73;100.00
60015;BME280;45867;52.480;6.056;2023-02-28T01:20:03;103199.22;;;1.71;100.00
60015;BME280;45867;52.480;6.056;2023-02-28T01:22:29;103196.91;;;1.68;100.00
60015;BME280;45867;52.480;6.056;2023-02-28T01:24:54;103202.50;;;1.73;100.00
60015;BME280;45867;52.480;6.056;2023-02-28T01:27:20;103198.41;;;1.71;100.00
60015;BME280;45867;52.480;6.056;2023-02-28T01:29:45;103211.16;;;1.74;100.00
60015;BME280;45867;52.480;6.056;2023-02-28T01:32:10;103208.56;;;1.74;100.00
60015;BME280;45867;52.480;6.056;2023-02-28T01:34:36;103203.19;;;1.75;100.00
60015;BME280;45867;52.480;6.056;2023-02-28T01:37:01;103203.34;;;1.74;100.00
60015;BME280;45867;52.480;6.056;2023-02-28T01:39:28;103200.50;;;1.67;100.00
60015;BME280;45867;52.480;6.056;2023-02-28T01:41:54;103199.38;;;1.70;100.00
60015;BME280;45867;52.480;6.056;2023-02-28T01:44:55;103201.91;;;1.80;100.00
60015;BME280;45867;52.480;6.056;2023-02-28T01:47:21;103195.19;;;1.77;100.00
60015;BME280;45867;52.480;6.056;2023-02-28T01:49:48;103200.72;;;1.74;100.00
60015;BME280;45867;52.480;6.056;2023-02-28T01:52:14;103190.56;;;1.71;100.00
60015;BME280;45867;52.480;6.056;2023-02-28T01:54:47;103197.59;;;1.70;100.00
60015;BME280;45867;52.480;6.056;2023-02-28T01:57:17;103193.03;;;1.72;100.00
60015;BME280;45867;52.480;6.056;2023-02-28T01:59:49;103194.16;;;1.70;100.00
60015;BME280;45867;52.480;6.056;2023-02-28T02:02:19;103194.97;;;1.70;100.00
60015;BME280;45867;52.480;6.056;2023-02-28T02:04:55;103188.13;;;1.69;100.00
60015;BME280;45867;52.480;6.056;2023-02-28T02:07:23;103191.25;;;1.73;100.00
60015;BME280;45867;52.480;6.056;2023-02-28T02:09:50;103190.44;;;1.72;100.00
60015;BME280;45867;52.480;6.056;2023-02-28T02:12:35;103181.75;;;1.72;100.00
60015;BME280;45867;52.480;6.056;2023-02-28T02:15:10;103189.31;;;1.75;100.00
60015;BME280;45867;52.480;6.056;2023-02-28T02:17:44;103176.00;;;1.68;100.00
60015;BME280;45867;52.480;6.056;2023-02-28T02:20:50;103192.00;;;1.83;100.00
60015;BME280;45867;52.480;6.056;2023-02-28T02:26:41;103186.53;;;1.94;100.00
60015;BME280;45867;52.480;6.056;2023-02-28T02:40:25;103183.09;;;1.76;100.00
60015;BME280;45867;52.480;6.056;2023-02-28T02:46:20;103182.97;;;1.77;100.00
60015;BME280;45867;52.480;6.056;2023-02-28T02:48:47;103186.38;;;1.78;100.00
60015;BME280;45867;52.480;6.056;2023-02-28T02:51:18;103183.03;;;1.86;100.00
60015;BME280;45867;52.480;6.056;2023-02-28T02:56:16;103190.63;;;1.79;100.00
60015;BME280;45867;52.480;6.056;2023-02-28T02:58:44;103196.69;;;1.80;100.00
60015;BME280;45867;52.480;6.056;2023-02-28T03:01:17;103182.72;;;1.71;100.00
60015;BME280;45867;52.480;6.056;2023-02-28T03:03:54;103199.00;;;1.83;100.00
60015;BME280;45867;52.480;6.056;2023-02-28T03:06:20;103190.50;;;1.81;100.00
60015;BME280;45867;52.480;6.056;2023-02-28T03:08:46;103196.94;;;1.86;100.00
60015;BME280;45867;52.480;6.056;2023-02-28T03:11:13;103188.25;;;1.86;100.00
60015;BME280;45867;52.480;6.056;2023-02-28T03:24:54;103192.22;;;1.90;100.00
60015;BME280;45867;52.480;6.056;2023-02-28T03:27:39;103186.00;;;1.91;100.00
60015;BME280;45867;52.480;6.056;2023-02-28T03:30:16;103199.91;;;1.91;100.00
60015;BME280;45867;52.480;6.056;2023-02-28T03:32:56;103190.72;;;1.87;100.00
60015;BME280;45867;52.480;6.056;2023-02-28T03:35:31;103194.31;;;1.86;100.00
60015;BME280;45867;52.480;6.056;2023-02-28T03:38:07;103192.66;;;1.85;100.00
60015;BME280;45867;52.480;6.056;2023-02-28T03:40:36;103198.78;;;1.76;100.00
60015;BME280;45867;52.480;6.056;2023-02-28T03:43:10;103202.22;;;1.76;100.00
60015;BME280;45867;52.480;6.056;2023-02-28T03:45:38;103201.53;;;1.74;100.00
60015;BME280;45867;52.480;6.056;2023-02-28T03:48:14;103201.84;;;1.71;100.00
60015;BME280;45867;52.480;6.056;2023-02-28T03:50:44;103206.25;;;1.71;100.00
60015;BME280;45867;52.480;6.056;2023-02-28T03:53:42;103206.41;;;1.69;100.00
60015;BME280;45867;52.480;6.056;2023-02-28T03:56:17;103204.91;;;1.67;100.00
60015;BME280;45867;52.480;6.056;2023-02-28T03:59:00;103203.72;;;1.61;100.00
60015;BME280;45867;52.480;6.056;2023-02-28T04:01:38;103200.13;;;1.62;100.00
60015;BME280;45867;52.480;6.056;2023-02-28T04:04:04;103205.47;;;1.61;100.00
60015;BME280;45867;52.480;6.056;2023-02-28T04:06:32;103201.66;;;1.55;100.00
60015;BME280;45867;52.480;6.056;2023-02-28T04:08:58;103197.13;;;1.57;100.00
60015;BME280;45867;52.480;6.056;2023-02-28T04:11:32;103204.66;;;1.60;100.00
60015;BME280;45867;52.480;6.056;2023-02-28T04:14:02;103195.09;;;1.51;100.00
60015;BME280;45867;52.480;6.056;2023-02-28T04:16:28;103194.13;;;1.52;100.00
60015;BME280;45867;52.480;6.056;2023-02-28T04:18:54;103192.31;;;1.52;100.00
60015;BME280;45867;52.480;6.056;2023-02-28T04:21:27;103194.03;;;1.44;100.00
60015;BME280;45867;52.480;6.056;2023-02-28T04:23:56;103199.44;;;1.42;100.00
60015;BME280;45867;52.480;6.056;2023-02-28T04:26:27;103185.81;;;1.39;100.00
60015;BME280;45867;52.480;6.056;2023-02-28T04:28:52;103194.50;;;1.39;100.00
60015;BME280;45867;52.480;6.056;2023-02-28T04:31:18;103186.78;;;1.38;100.00
60015;BME280;45867;52.480;6.056;2023-02-28T04:33:43;103184.94;;;1.48;100.00
60015;BME280;45867;52.480;6.056;2023-02-28T04:36:08;103187.31;;;1.41;100.00
60015;BME280;45867;52.480;6.056;2023-02-28T04:38:36;103179.63;;;1.40;100.00
60015;BME280;45867;52.480;6.056;2023-02-28T04:41:02;103181.19;;;1.32;100.00
60015;BME280;45867;52.480;6.056;2023-02-28T04:43:28;103182.38;;;1.20;100.00
60015;BME280;45867;52.480;6.056;2023-02-28T04:45:54;103193.63;;;1.21;100.00
60015;BME280;45867;52.480;6.056;2023-02-28T04:48:31;103198.97;;;1.19;100.00
60015;BME280;45867;52.480;6.056;2023-02-28T04:51:16;103189.94;;;1.14;100.00
60015;BME280;45867;52.480;6.056;2023-02-28T04:53:42;103193.75;;;1.19;100.00
60015;BME280;45867;52.480;6.056;2023-02-28T04:56:11;103184.72;;;1.14;100.00
60015;BME280;45867;52.480;6.056;2023-02-28T04:58:37;103198.47;;;1.16;100.00
60015;BME280;45867;52.480;6.056;2023-02-28T05:01:15;103199.34;;;1.06;100.00
60015;BME280;45867;52.480;6.056;2023-02-28T05:03:42;103196.34;;;1.01;100.00
60015;BME280;45867;52.480;6.056;2023-02-28T05:06:08;103202.91;;;1.05;100.00
60015;BME280;45867;52.480;6.056;2023-02-28T05:08:33;103204.59;;;0.97;100.00
60015;BME280;45867;52.480;6.056;2023-02-28T05:10:59;103207.63;;;0.92;100.00
60015;BME280;45867;52.480;6.056;2023-02-28T05:13:26;103198.56;;;0.86;100.00
60015;BME280;45867;52.480;6.056;2023-02-28T05:15:51;103189.81;;;0.78;100.00
60015;BME280;45867;52.480;6.056;2023-02-28T05:18:17;103193.25;;;0.78;100.00
60015;BME280;45867;52.480;6.056;2023-02-28T05:20:42;103207.41;;;0.76;100.00
60015;BME280;45867;52.480;6.056;2023-02-28T05:23:08;103194.94;;;0.70;100.00
60015;BME280;45867;52.480;6.056;2023-02-28T05:25:36;103197.00;;;0.66;100.00
60015;BME280;45867;52.480;6.056;2023-02-28T05:28:01;103202.47;;;0.73;100.00
60015;BME280;45867;52.480;6.056;2023-02-28T05:30:27;103199.75;;;0.64;100.00
60015;BME280;45867;52.480;6.056;2023-02-28T05:32:52;103200.72;;;0.63;100.00
60015;BME280;45867;52.480;6.056;2023-02-28T05:35:17;103203.63;;;0.60;100.00
60015;BME280;45867;52.480;6.056;2023-02-28T05:37:43;103211.72;;;0.57;100.00
60015;BME280;45867;52.480;6.056;2023-02-28T05:40:09;103201.81;;;0.51;100.00
60015;BME280;45867;52.480;6.056;2023-02-28T05:42:37;103207.59;;;0.55;100.00
60015;BME280;45867;52.480;6.056;2023-02-28T05:45:04;103208.44;;;0.55;100.00
60015;BME280;45867;52.480;6.056;2023-02-28T05:47:30;103208.44;;;0.55;100.00
60015;BME280;45867;52.480;6.056;2023-02-28T05:49:56;103202.22;;;0.56;100.00
60015;BME280;45867;52.480;6.056;2023-02-28T05:52:21;103201.69;;;0.53;100.00
60015;BME280;45867;52.480;6.056;2023-02-28T05:54:47;103218.03;;;0.55;100.00
60015;BME280;45867;52.480;6.056;2023-02-28T05:57:13;103213.66;;;0.46;100.00
60015;BME280;45867;52.480;6.056;2023-02-28T05:59:38;103208.59;;;0.44;100.00
60015;BME280;45867;52.480;6.056;2023-02-28T06:02:06;103200.88;;;0.42;100.00
60015;BME280;45867;52.480;6.056;2023-02-28T06:04:35;103197.88;;;0.37;100.00
60015;BME280;45867;52.480;6.056;2023-02-28T06:07:00;103203.91;;;0.48;100.00
60015;BME280;45867;52.480;6.056;2023-02-28T06:09:26;103201.59;;;0.44;100.00
60015;BME280;45867;52.480;6.056;2023-02-28T06:11:52;103202.81;;;0.40;100.00
60015;BME280;45867;52.480;6.056;2023-02-28T06:14:18;103210.50;;;0.42;100.00
60015;BME280;45867;52.480;6.056;2023-02-28T06:16:44;103217.50;;;0.41;100.00
60015;BME280;45867;52.480;6.056;2023-02-28T06:19:10;103220.94;;;0.42;100.00
60015;BME280;45867;52.480;6.056;2023-02-28T06:21:36;103213.97;;;0.33;100.00
60015;BME280;45867;52.480;6.056;2023-02-28T06:24:01;103223.13;;;0.37;100.00
60015;BME280;45867;52.480;6.056;2023-02-28T06:26:27;103211.34;;;0.33;100.00
60015;BME280;45867;52.480;6.056;2023-02-28T06:28:52;103218.59;;;0.29;100.00
60015;BME280;45867;52.480;6.056;2023-02-28T06:31:19;103212.44;;;0.20;100.00
60015;BME280;45867;52.480;6.056;2023-02-28T06:33:45;103223.53;;;0.32;100.00
60015;BME280;45867;52.480;6.056;2023-02-28T06:36:11;103219.03;;;0.34;100.00
60015;BME280;45867;52.480;6.056;2023-02-28T06:38:37;103229.44;;;0.34;100.00
60015;BME280;45867;52.480;6.056;2023-02-28T06:41:04;103240.28;;;0.30;100.00
60015;BME280;45867;52.480;6.056;2023-02-28T06:43:34;103247.03;;;0.32;100.00
60015;BME280;45867;52.480;6.056;2023-02-28T06:46:01;103236.59;;;0.32;100.00
60015;BME280;45867;52.480;6.056;2023-02-28T06:48:27;103233.97;;;0.32;100.00
60015;BME280;45867;52.480;6.056;2023-02-28T06:51:05;103234.94;;;0.31;100.00
60015;BME280;45867;52.480;6.056;2023-02-28T06:53:30;103233.31;;;0.30;100.00
60015;BME280;45867;52.480;6.056;2023-02-28T06:55:56;103234.53;;;0.26;100.00
60015;BME280;45867;52.480;6.056;2023-02-28T06:58:21;103233.72;;;0.26;100.00
60015;BME280;45867;52.480;6.056;2023-02-28T07:00:51;103245.78;;;0.36;100.00
60015;BME280;45867;52.480;6.056;2023-02-28T07:03:17;103257.31;;;0.34;100.00
60015;BME280;45867;52.480;6.056;2023-02-28T07:05:43;103265.97;;;0.44;100.00
60015;BME280;45867;52.480;6.056;2023-02-28T07:08:09;103253.34;;;0.39;100.00
60015;BME280;45867;52.480;6.056;2023-02-28T07:10:36;103263.38;;;0.44;100.00
60015;BME280;45867;52.480;6.056;2023-02-28T07:13:03;103253.19;;;0.51;100.00
60015;BME280;45867;52.480;6.056;2023-02-28T07:15:29;103229.59;;;0.42;100.00
60015;BME280;45867;52.480;6.056;2023-02-28T07:17:54;103257.03;;;0.56;100.00
60015;BME280;45867;52.480;6.056;2023-02-28T07:20:19;103262.25;;;0.66;100.00
60015;BME280;45867;52.480;6.056;2023-02-28T07:22:45;103244.78;;;0.66;100.00
60015;BME280;45867;52.480;6.056;2023-02-28T07:25:10;103238.34;;;0.61;100.00
60015;BME280;45867;52.480;6.056;2023-02-28T07:27:36;103244.25;;;0.53;100.00
60015;BME280;45867;52.480;6.056;2023-02-28T07:30:01;103254.94;;;0.60;100.00
60015;BME280;45867;52.480;6.056;2023-02-28T07:32:28;103262.91;;;0.68;100.00
60015;BME280;45867;52.480;6.056;2023-02-28T07:34:54;103260.72;;;0.63;100.00
60015;BME280;45867;52.480;6.056;2023-02-28T07:37:20;103272.81;;;0.74;100.00
60015;BME280;45867;52.480;6.056;2023-02-28T07:39:45;103268.00;;;0.79;100.00
60015;BME280;45867;52.480;6.056;2023-02-28T07:42:13;103268.00;;;0.79;100.00
60015;BME280;45867;52.480;6.056;2023-02-28T07:44:39;103276.88;;;0.86;100.00
60015;BME280;45867;52.480;6.056;2023-02-28T07:47:11;103268.38;;;0.84;100.00
60015;BME280;45867;52.480;6.056;2023-02-28T07:49:37;103272.47;;;0.87;100.00
60015;BME280;45867;52.480;6.056;2023-02-28T07:52:06;103261.66;;;0.82;100.00
60015;BME280;45867;52.480;6.056;2023-02-28T07:54:33;103263.25;;;0.93;100.00
60015;BME280;45867;52.480;6.056;2023-02-28T07:56:58;103251.16;;;1.01;100.00
60015;BME280;45867;52.480;6.056;2023-02-28T07:59:23;103262.81;;;1.07;100.00
60015;BME280;45867;52.480;6.056;2023-02-28T08:01:49;103264.00;;;1.22;100.00
60015;BME280;45867;52.480;6.056;2023-02-28T08:04:16;103270.41;;;1.38;100.00
60015;BME280;45867;52.480;6.056;2023-02-28T08:06:42;103269.38;;;1.48;100.00
60015;BME280;45867;52.480;6.056;2023-02-28T08:09:07;103272.91;;;1.57;100.00
60015;BME280;45867;52.480;6.056;2023-02-28T08:11:33;103265.84;;;1.67;100.00
60015;BME280;45867;52.480;6.056;2023-02-28T08:13:58;103275.78;;;1.82;100.00
60015;BME280;45867;52.480;6.056;2023-02-28T08:16:23;103281.41;;;1.87;100.00
60015;BME280;45867;52.480;6.056;2023-02-28T08:18:50;103281.28;;;1.88;100.00
60015;BME280;45867;52.480;6.056;2023-02-28T08:21:15;103285.09;;;1.94;100.00
60015;BME280;45867;52.480;6.056;2023-02-28T08:23:41;103277.50;;;1.91;100.00
60015;BME280;45867;52.480;6.056;2023-02-28T08:26:08;103278.34;;;2.09;100.00
60015;BME280;45867;52.480;6.056;2023-02-28T08:28:33;103262.44;;;2.20;100.00
60015;BME280;45867;52.480;6.056;2023-02-28T08:30:59;103270.09;;;2.58;100.00
60015;BME280;45867;52.480;6.056;2023-02-28T08:33:24;103271.63;;;2.86;100.00
60015;BME280;45867;52.480;6.056;2023-02-28T08:35:54;103289.59;;;3.16;100.00
60015;BME280;45867;52.480;6.056;2023-02-28T08:38:20;103283.06;;;3.11;100.00
60015;BME280;45867;52.480;6.056;2023-02-28T08:40:45;103281.38;;;3.10;100.00
60015;BME280;45867;52.480;6.056;2023-02-28T08:43:11;103278.50;;;2.87;100.00
60015;BME280;45867;52.480;6.056;2023-02-28T08:45:36;103282.56;;;2.64;100.00
60015;BME280;45867;52.480;6.056;2023-02-28T08:48:01;103280.78;;;2.64;100.00
60015;BME280;45867;52.480;6.056;2023-02-28T08:50:27;103278.09;;;2.56;100.00
60015;BME280;45867;52.480;6.056;2023-02-28T08:52:52;103287.16;;;2.62;100.00
60015;BME280;45867;52.480;6.056;2023-02-28T08:55:17;103286.97;;;2.81;100.00
60015;BME280;45867;52.480;6.056;2023-02-28T08:57:43;103285.94;;;3.00;100.00
60015;BME280;45867;52.480;6.056;2023-02-28T09:00:09;103283.13;;;3.28;100.00
60015;BME280;45867;52.480;6.056;2023-02-28T09:02:35;103287.34;;;3.55;100.00
60015;BME280;45867;52.480;6.056;2023-02-28T09:05:01;103286.44;;;3.81;100.00
60015;BME280;45867;52.480;6.056;2023-02-28T09:07:28;103277.94;;;4.03;100.00
60015;BME280;45867;52.480;6.056;2023-02-28T09:09:53;103282.56;;;4.09;100.00
60015;BME280;45867;52.480;6.056;2023-02-28T09:12:22;103284.88;;;4.20;100.00
60015;BME280;45867;52.480;6.056;2023-02-28T09:14:48;103282.84;;;4.06;100.00
60015;BME280;45867;52.480;6.056;2023-02-28T09:17:13;103282.78;;;3.73;100.00
60015;BME280;45867;52.480;6.056;2023-02-28T09:19:39;103290.09;;;3.53;100.00
60015;BME280;45867;52.480;6.056;2023-02-28T09:22:04;103278.38;;;3.31;100.00
60015;BME280;45867;52.480;6.056;2023-02-28T09:24:29;103293.25;;;3.23;100.00
60015;BME280;45867;52.480;6.056;2023-02-28T09:26:56;103292.91;;;3.18;100.00
60015;BME280;45867;52.480;6.056;2023-02-28T09:29:22;103285.03;;;3.18;100.00
60015;BME280;45867;52.480;6.056;2023-02-28T09:31:47;103292.75;;;3.19;100.00
60015;BME280;45867;52.480;6.056;2023-02-28T09:34:12;103301.16;;;3.31;100.00
60015;BME280;45867;52.480;6.056;2023-02-28T09:36:38;103295.69;;;3.50;100.00
60015;BME280;45867;52.480;6.056;2023-02-28T09:39:03;103299.34;;;3.66;100.00
60015;BME280;45867;52.480;6.056;2023-02-28T09:41:49;103290.28;;;4.60;100.00
60015;BME280;45867;52.480;6.056;2023-02-28T09:44:31;103306.78;;;5.01;100.00
60015;BME280;45867;52.480;6.056;2023-02-28T09:47:08;103296.44;;;5.08;100.00
60015;BME280;45867;52.480;6.056;2023-02-28T09:49:44;103302.56;;;4.84;100.00
60015;BME280;45867;52.480;6.056;2023-02-28T09:52:30;103298.47;;;4.24;100.00
60015;BME280;45867;52.480;6.056;2023-02-28T09:55:20;103311.56;;;3.99;100.00
60015;BME280;45867;52.480;6.056;2023-02-28T09:57:49;103306.28;;;3.91;100.00
60015;BME280;45867;52.480;6.056;2023-02-28T10:00:24;103305.19;;;4.10;100.00
60015;BME280;45867;52.480;6.056;2023-02-28T10:03:01;103305.88;;;4.20;100.00
60015;BME280;45867;52.480;6.056;2023-02-28T10:05:39;103297.44;;;4.00;100.00
60015;BME280;45867;52.480;6.056;2023-02-28T10:09:22;103305.81;;;3.88;100.00
60015;BME280;45867;52.480;6.056;2023-02-28T10:11:27;103297.75;;;3.89;100.00
60015;BME280;45867;52.480;6.056;2023-02-28T10:14:02;103293.31;;;3.90;100.00
60015;BME280;45867;52.480;6.056;2023-02-28T10:16:54;103294.41;;;3.71;100.00
60015;BME280;45867;52.480;6.056;2023-02-28T10:19:56;103302.16;;;3.81;100.00
60015;BME280;45867;52.480;6.056;2023-02-28T10:22:41;103301.06;;;4.08;99.19
60015;BME280;45867;52.480;6.056;2023-02-28T10:25:19;103308.41;;;5.97;99.53
60015;BME280;45867;52.480;6.056;2023-02-28T10:27:44;103307.28;;;8.01;91.63
60015;BME280;45867;52.480;6.056;2023-02-28T10:30:11;103301.16;;;9.34;76.89
60015;BME280;45867;52.480;6.056;2023-02-28T10:32:38;103296.72;;;10.76;71.19
60015;BME280;45867;52.480;6.056;2023-02-28T10:37:45;103302.72;;;13.00;60.51
60015;BME280;45867;52.480;6.056;2023-02-28T10:45:52;103290.19;;;14.63;43.36
60015;BME280;45867;52.480;6.056;2023-02-28T10:53:29;103288.13;;;17.69;38.41
60015;BME280;45867;52.480;6.056;2023-02-28T10:56:04;103288.28;;;17.85;35.45
60015;BME280;45867;52.480;6.056;2023-02-28T10:58:52;103283.25;;;17.93;33.69
60015;BME280;45867;52.480;6.056;2023-02-28T11:01:39;103275.38;;;18.56;32.35
60015;BME280;45867;52.480;6.056;2023-02-28T11:07:19;103281.69;;;19.66;29.89
60015;BME280;45867;52.480;6.056;2023-02-28T11:09:48;103280.03;;;20.31;32.38
60015;BME280;45867;52.480;6.056;2023-02-28T11:12:28;103270.34;;;19.48;28.15
60015;BME280;45867;52.480;6.056;2023-02-28T11:14:56;103271.19;;;20.10;31.28
60015;BME280;45867;52.480;6.056;2023-02-28T11:17:26;103273.84;;;19.49;30.84
60015;BME280;45867;52.480;6.056;2023-02-28T11:19:57;103262.75;;;20.68;29.93
60015;BME280;45867;52.480;6.056;2023-02-28T11:22:26;103265.78;;;20.15;27.48
60015;BME280;45867;52.480;6.056;2023-02-28T11:24:55;103264.91;;;20.66;30.74
60015;BME280;45867;52.480;6.056;2023-02-28T11:30:00;103251.19;;;22.15;28.29
60015;BME280;45867;52.480;6.056;2023-02-28T11:32:30;103248.66;;;21.31;26.35
60015;BME280;45867;52.480;6.056;2023-02-28T11:37:35;103245.81;;;19.14;29.34
60015;BME280;45867;52.480;6.056;2023-02-28T11:40:01;103248.06;;;20.90;28.67
60015;BME280;45867;52.480;6.056;2023-02-28T11:45:28;103247.63;;;21.66;26.76
60015;BME280;45867;52.480;6.056;2023-02-28T11:56:58;103236.84;;;21.22;26.47
60015;BME280;45867;52.480;6.056;2023-02-28T11:59:49;103234.25;;;21.51;26.89
60015;BME280;45867;52.480;6.056;2023-02-28T12:02:31;103235.34;;;21.00;25.10
60015;BME280;45867;52.480;6.056;2023-02-28T12:10:32;103219.81;;;21.66;25.72
60015;BME280;45867;52.480;6.056;2023-02-28T12:13:21;103216.78;;;21.72;24.15
60015;BME280;45867;52.480;6.056;2023-02-28T12:19:03;103213.50;;;21.02;25.74
60015;BME280;45867;52.480;6.056;2023-02-28T12:24:22;103220.28;;;20.94;26.60
60015;BME280;45867;52.480;6.056;2023-02-28T12:26:50;103215.44;;;21.41;25.17
60015;BME280;45867;52.480;6.056;2023-02-28T12:32:13;103204.34;;;22.30;25.72
60015;BME280;45867;52.480;6.056;2023-02-28T12:34:49;103192.06;;;22.61;24.42
60015;BME280;45867;52.480;6.056;2023-02-28T12:37:27;103206.53;;;20.26;24.42
60015;BME280;45867;52.480;6.056;2023-02-28T12:40:00;103198.28;;;19.35;26.03
60015;BME280;45867;52.480;6.056;2023-02-28T12:42:29;103199.75;;;20.44;26.26
60015;BME280;45867;52.480;6.056;2023-02-28T12:45:05;103187.81;;;20.70;25.61
60015;BME280;45867;52.480;6.056;2023-02-28T12:47:34;103194.22;;;20.04;26.68
60015;BME280;45867;52.480;6.056;2023-02-28T12:50:06;103199.66;;;20.74;24.90
60015;BME280;45867;52.480;6.056;2023-02-28T12:55:11;103176.50;;;21.81;25.32
60015;BME280;45867;52.480;6.056;2023-02-28T12:57:49;103174.88;;;21.51;24.14
60015;BME280;45867;52.480;6.056;2023-02-28T13:00:17;103178.38;;;19.82;25.23
60015;BME280;45867;52.480;6.056;2023-02-28T13:03:05;103184.25;;;19.23;26.80
60015;BME280;45867;52.480;6.056;2023-02-28T13:08:35;103176.22;;;19.74;25.13
60015;BME280;45867;52.480;6.056;2023-02-28T13:11:03;103164.13;;;19.41;25.56
60015;BME280;45867;52.480;6.056;2023-02-28T13:13:30;103158.34;;;20.24;26.09
60015;BME280;45867;52.480;6.056;2023-02-28T13:16:04;103159.16;;;20.30;25.47
60015;BME280;45867;52.480;6.056;2023-02-28T13:18:45;103167.28;;;20.04;26.12
60015;BME280;45867;52.480;6.056;2023-02-28T13:21:26;103164.03;;;20.17;25.77
60015;BME280;45867;52.480;6.056;2023-02-28T13:34:31;103151.69;;;18.78;26.77
60015;BME280;45867;52.480;6.056;2023-02-28T13:39:58;103147.97;;;19.05;26.91
60015;BME280;45867;52.480;6.056;2023-02-28T13:42:34;103153.50;;;18.73;27.14
60015;BME280;45867;52.480;6.056;2023-02-28T13:47:32;103142.88;;;19.08;27.52
60015;BME280;45867;52.480;6.056;2023-02-28T13:50:37;103143.53;;;18.58;28.19
60015;BME280;45867;52.480;6.056;2023-02-28T13:53:28;103137.75;;;17.12;28.78
60015;BME280;45867;52.480;6.056;2023-02-28T13:56:49;103136.16;;;17.11;29.19
60015;BME280;45867;52.480;6.056;2023-02-28T14:02:01;103134.69;;;16.76;29.64
60015;BME280;45867;52.480;6.056;2023-02-28T14:07:24;103131.78;;;16.77;29.66
60015;BME280;45867;52.480;6.056;2023-02-28T14:09:59;103124.00;;;16.54;29.76
60015;BME280;45867;52.480;6.056;2023-02-28T14:12:58;103132.19;;;16.25;31.23
60015;BME280;45867;52.480;6.056;2023-02-28T14:17:59;103129.50;;;14.61;31.73
60015;BME280;45867;52.480;6.056;2023-02-28T14:20:29;103118.50;;;14.86;32.95
60015;BME280;45867;52.480;6.056;2023-02-28T14:28:56;103117.81;;;14.39;32.71
60015;BME280;45867;52.480;6.056;2023-02-28T14:31:37;103117.53;;;13.76;33.04
60015;BME280;45867;52.480;6.056;2023-02-28T14:34:31;103125.41;;;13.71;33.22
60015;BME280;45867;52.480;6.056;2023-02-28T14:37:02;103127.25;;;13.59;33.65
60015;BME280;45867;52.480;6.056;2023-02-28T14:39:28;103126.78;;;13.62;34.26
60015;BME280;45867;52.480;6.056;2023-02-28T14:41:56;103121.00;;;13.53;34.67
60015;BME280;45867;52.480;6.056;2023-02-28T14:44:25;103122.59;;;13.54;35.31
60015;BME280;45867;52.480;6.056;2023-02-28T14:46:55;103113.16;;;12.68;34.98
60015;BME280;45867;52.480;6.056;2023-02-28T14:49:27;103130.00;;;12.07;36.01
60015;BME280;45867;52.480;6.056;2023-02-28T14:54:35;103117.19;;;11.72;36.38
60015;BME280;45867;52.480;6.056;2023-02-28T14:57:01;103115.50;;;11.27;37.62
60015;BME280;45867;52.480;6.056;2023-02-28T14:59:32;103119.00;;;11.21;38.96
60015;BME280;45867;52.480;6.056;2023-02-28T15:02:33;103120.56;;;11.29;40.11
60015;BME280;45867;52.480;6.056;2023-02-28T15:05:22;103126.38;;;10.81;39.79